sensor_id;sensor_type;location;lat;lon;timestamp;temperature;humidity
64987;DHT22;51532;52.108;9.360;2022-08-03T00:02:07;20.30;99.90
64987;DHT22;51532;52.108;9.360;2022-08-03T00:04:52;20.30;99.90
64987;DHT22;51532;52.108;9.360;2022-08-03T00:07:38;20.20;99.90
64987;DHT22;51532;52.108;9.360;2022-08-03T00:10:24;20.20;99.90
64987;DHT22;51532;52.108;9.360;2022-08-03T00:13:09;20.10;99.90
64987;DHT22;51532;52.108;9.360;2022-08-03T00:15:57;20.10;99.90
64987;DHT22;51532;52.108;9.360;2022-08-03T00:18:42;20.10;99.90
64987;DHT22;51532;52.108;9.360;2022-08-03T00:21:28;20.10;99.90
64987;DHT22;51532;52.108;9.360;2022-08-03T00:24:13;20.00;99.90
64987;DHT22;51532;52.108;9.360;2022-08-03T00:26:59;20.00;99.90
64987;DHT22;51532;52.108;9.360;2022-08-03T00:29:44;20.00;99.90
64987;DHT22;51532;52.108;9.360;2022-08-03T00:32:44;20.00;99.90
64987;DHT22;51532;52.108;9.360;2022-08-03T00:35:30;19.90;99.90
64987;DHT22;51532;52.108;9.360;2022-08-03T00:38:34;19.90;99.90
64987;DHT22;51532;52.108;9.360;2022-08-03T00:41:20;19.90;99.90
64987;DHT22;51532;52.108;9.360;2022-08-03T00:44:05;18.30;99.90
64987;DHT22;51532;52.108;9.360;2022-08-03T00:46:50;19.80;99.90
64987;DHT22;51532;52.108;9.360;2022-08-03T00:49:37;18.80;99.90
64987;DHT22;51532;52.108;9.360;2022-08-03T00:52:25;19.80;99.90
64987;DHT22;51532;52.108;9.360;2022-08-03T00:55:10;19.80;99.90
64987;DHT22;51532;52.108;9.360;2022-08-03T00:57:57;19.80;99.90
64987;DHT22;51532;52.108;9.360;2022-08-03T01:00:43;19.70;99.90
64987;DHT22;51532;52.108;9.360;2022-08-03T01:03:28;19.60;99.90
64987;DHT22;51532;52.108;9.360;2022-08-03T01:06:22;19.60;99.90
64987;DHT22;51532;52.108;9.360;2022-08-03T01:12:55;19.50;99.90
64987;DHT22;51532;52.108;9.360;2022-08-03T01:16:11;19.40;99.90
64987;DHT22;51532;52.108;9.360;2022-08-03T01:19:26;19.40;99.90
64987;DHT22;51532;52.108;9.360;2022-08-03T01:25:33;19.30;99.90
64987;DHT22;51532;52.108;9.360;2022-08-03T01:28:55;19.20;99.90
64987;DHT22;51532;52.108;9.360;2022-08-03T01:31:49;19.20;99.90
64987;DHT22;51532;52.108;9.360;2022-08-03T01:35:05;19.10;99.90
64987;DHT22;51532;52.108;9.360;2022-08-03T01:38:02;19.00;99.90
64987;DHT22;51532;52.108;9.360;2022-08-03T01:40:49;19.10;99.90
64987;DHT22;51532;52.108;9.360;2022-08-03T01:43:40;19.00;99.90
64987;DHT22;51532;52.108;9.360;2022-08-03T01:46:47;19.00;99.90
64987;DHT22;51532;52.108;9.360;2022-08-03T01:49:39;18.90;99.90
64987;DHT22;51532;52.108;9.360;2022-08-03T01:52:28;18.90;99.90
64987;DHT22;51532;52.108;9.360;2022-08-03T01:55:16;18.90;99.90
64987;DHT22;51532;52.108;9.360;2022-08-03T01:58:04;18.90;99.90
64987;DHT22;51532;52.108;9.360;2022-08-03T02:00:52;18.90;99.90
64987;DHT22;51532;52.108;9.360;2022-08-03T02:03:43;18.80;99.90
64987;DHT22;51532;52.108;9.360;2022-08-03T02:06:46;18.80;99.90
64987;DHT22;51532;52.108;9.360;2022-08-03T02:09:50;18.80;99.90
64987;DHT22;51532;52.108;9.360;2022-08-03T02:12:37;18.80;99.90
64987;DHT22;51532;52.108;9.360;2022-08-03T02:15:24;18.80;99.90
64987;DHT22;51532;52.108;9.360;2022-08-03T02:18:10;17.70;99.90
64987;DHT22;51532;52.108;9.360;2022-08-03T02:20:56;18.70;99.90
64987;DHT22;51532;52.108;9.360;2022-08-03T02:23:43;18.70;99.90
64987;DHT22;51532;52.108;9.360;2022-08-03T02:26:29;18.60;99.90
64987;DHT22;51532;52.108;9.360;2022-08-03T02:29:19;18.60;99.90
64987;DHT22;51532;52.108;9.360;2022-08-03T02:32:29;18.60;99.90
64987;DHT22;51532;52.108;9.360;2022-08-03T02:35:16;18.60;99.90
64987;DHT22;51532;52.108;9.360;2022-08-03T02:38:06;18.70;99.90
64987;DHT22;51532;52.108;9.360;2022-08-03T02:40:54;18.60;99.90
64987;DHT22;51532;52.108;9.360;2022-08-03T02:43:45;18.60;99.90
64987;DHT22;51532;52.108;9.360;2022-08-03T02:46:55;18.60;99.90
64987;DHT22;51532;52.108;9.360;2022-08-03T02:49:41;18.60;99.90
64987;DHT22;51532;52.108;9.360;2022-08-03T02:52:36;18.50;99.90
64987;DHT22;51532;52.108;9.360;2022-08-03T02:55:24;18.50;99.90
64987;DHT22;51532;52.108;9.360;2022-08-03T02:58:12;18.50;99.90
64987;DHT22;51532;52.108;9.360;2022-08-03T03:00:59;18.40;99.90
64987;DHT22;51532;52.108;9.360;2022-08-03T03:03:46;18.40;99.90
64987;DHT22;51532;52.108;9.360;2022-08-03T03:06:32;18.40;99.90
64987;DHT22;51532;52.108;9.360;2022-08-03T03:09:18;18.40;99.90
64987;DHT22;51532;52.108;9.360;2022-08-03T03:12:06;18.40;99.90
64987;DHT22;51532;52.108;9.360;2022-08-03T03:14:52;18.30;99.90
64987;DHT22;51532;52.108;9.360;2022-08-03T03:17:38;18.40;99.90
64987;DHT22;51532;52.108;9.360;2022-08-03T03:20:24;18.40;99.90
64987;DHT22;51532;52.108;9.360;2022-08-03T03:23:15;18.30;99.90
64987;DHT22;51532;52.108;9.360;2022-08-03T03:26:02;18.30;99.90
64987;DHT22;51532;52.108;9.360;2022-08-03T03:28:48;18.30;99.90
64987;DHT22;51532;52.108;9.360;2022-08-03T03:31:34;18.20;99.90
64987;DHT22;51532;52.108;9.360;2022-08-03T03:34:20;18.20;99.90
64987;DHT22;51532;52.108;9.360;2022-08-03T03:37:08;18.20;99.90
64987;DHT22;51532;52.108;9.360;2022-08-03T03:39:53;18.20;99.90
64987;DHT22;51532;52.108;9.360;2022-08-03T03:42:39;18.20;99.90
64987;DHT22;51532;52.108;9.360;2022-08-03T03:45:25;18.20;99.90
64987;DHT22;51532;52.108;9.360;2022-08-03T03:48:11;18.20;99.90
64987;DHT22;51532;52.108;9.360;2022-08-03T03:50:57;18.10;99.90
64987;DHT22;51532;52.108;9.360;2022-08-03T03:53:59;18.10;99.90
64987;DHT22;51532;52.108;9.360;2022-08-03T03:56:45;18.10;99.90
64987;DHT22;51532;52.108;9.360;2022-08-03T03:59:30;18.10;99.90
64987;DHT22;51532;52.108;9.360;2022-08-03T04:02:20;18.20;99.90
64987;DHT22;51532;52.108;9.360;2022-08-03T04:05:06;18.10;99.90
64987;DHT22;51532;52.108;9.360;2022-08-03T04:08:17;18.10;99.90
64987;DHT22;51532;52.108;9.360;2022-08-03T04:11:25;18.10;99.90
64987;DHT22;51532;52.108;9.360;2022-08-03T04:14:24;18.10;99.90
64987;DHT22;51532;52.108;9.360;2022-08-03T04:17:11;18.10;99.90
64987;DHT22;51532;52.108;9.360;2022-08-03T04:20:00;18.10;99.90
64987;DHT22;51532;52.108;9.360;2022-08-03T04:22:48;18.10;99.90
64987;DHT22;51532;52.108;9.360;2022-08-03T04:25:36;18.10;99.90
64987;DHT22;51532;52.108;9.360;2022-08-03T04:28:24;18.10;99.90
64987;DHT22;51532;52.108;9.360;2022-08-03T04:31:17;18.10;99.90
64987;DHT22;51532;52.108;9.360;2022-08-03T04:34:04;18.10;99.90
64987;DHT22;51532;52.108;9.360;2022-08-03T04:36:53;18.20;99.90
64987;DHT22;51532;52.108;9.360;2022-08-03T04:39:43;18.20;99.90
64987;DHT22;51532;52.108;9.360;2022-08-03T04:42:31;18.30;99.90
64987;DHT22;51532;52.108;9.360;2022-08-03T04:45:18;18.40;99.90
64987;DHT22;51532;52.108;9.360;2022-08-03T04:48:04;18.40;99.90
64987;DHT22;51532;52.108;9.360;2022-08-03T04:50:51;18.40;99.90
64987;DHT22;51532;52.108;9.360;2022-08-03T04:53:37;18.40;99.90
64987;DHT22;51532;52.108;9.360;2022-08-03T04:56:22;18.40;99.90
64987;DHT22;51532;52.108;9.360;2022-08-03T04:59:09;18.40;99.90
64987;DHT22;51532;52.108;9.360;2022-08-03T05:01:54;20.00;99.90
64987;DHT22;51532;52.108;9.360;2022-08-03T05:04:41;18.40;99.90
64987;DHT22;51532;52.108;9.360;2022-08-03T05:07:30;18.40;99.90
64987;DHT22;51532;52.108;9.360;2022-08-03T05:10:21;18.50;99.90
64987;DHT22;51532;52.108;9.360;2022-08-03T05:13:06;18.50;99.90
64987;DHT22;51532;52.108;9.360;2022-08-03T05:15:56;18.50;99.90
64987;DHT22;51532;52.108;9.360;2022-08-03T05:18:42;18.50;99.90
64987;DHT22;51532;52.108;9.360;2022-08-03T05:21:28;18.60;99.90
64987;DHT22;51532;52.108;9.360;2022-08-03T05:24:33;18.60;99.90
64987;DHT22;51532;52.108;9.360;2022-08-03T05:27:18;18.60;99.90
64987;DHT22;51532;52.108;9.360;2022-08-03T05:30:04;18.70;99.90
64987;DHT22;51532;52.108;9.360;2022-08-03T05:33:10;18.70;99.90
64987;DHT22;51532;52.108;9.360;2022-08-03T05:35:55;18.80;99.90
64987;DHT22;51532;52.108;9.360;2022-08-03T05:38:48;18.80;99.90
64987;DHT22;51532;52.108;9.360;2022-08-03T05:41:34;18.90;99.90
64987;DHT22;51532;52.108;9.360;2022-08-03T05:44:21;19.00;99.90
64987;DHT22;51532;52.108;9.360;2022-08-03T05:47:09;19.10;99.90
64987;DHT22;51532;52.108;9.360;2022-08-03T05:49:55;19.10;99.90
64987;DHT22;51532;52.108;9.360;2022-08-03T05:52:40;19.20;99.90
64987;DHT22;51532;52.108;9.360;2022-08-03T05:55:27;19.20;99.90
64987;DHT22;51532;52.108;9.360;2022-08-03T05:58:12;19.20;99.90
64987;DHT22;51532;52.108;9.360;2022-08-03T06:00:58;19.30;99.90
64987;DHT22;51532;52.108;9.360;2022-08-03T06:03:44;19.40;99.90
64987;DHT22;51532;52.108;9.360;2022-08-03T06:06:30;19.50;99.90
64987;DHT22;51532;52.108;9.360;2022-08-03T06:09:16;19.60;99.90
64987;DHT22;51532;52.108;9.360;2022-08-03T06:12:03;19.70;99.90
64987;DHT22;51532;52.108;9.360;2022-08-03T06:14:48;19.80;99.90
64987;DHT22;51532;52.108;9.360;2022-08-03T06:17:34;19.90;99.90
64987;DHT22;51532;52.108;9.360;2022-08-03T06:20:22;20.00;99.90
64987;DHT22;51532;52.108;9.360;2022-08-03T06:23:11;20.10;99.90
64987;DHT22;51532;52.108;9.360;2022-08-03T06:26:02;20.20;99.90
64987;DHT22;51532;52.108;9.360;2022-08-03T06:28:48;20.40;99.90
64987;DHT22;51532;52.108;9.360;2022-08-03T06:31:37;20.50;99.90
64987;DHT22;51532;52.108;9.360;2022-08-03T06:34:23;20.50;99.90
64987;DHT22;51532;52.108;9.360;2022-08-03T06:37:19;20.60;99.90
64987;DHT22;51532;52.108;9.360;2022-08-03T06:40:05;20.70;99.90
64987;DHT22;51532;52.108;9.360;2022-08-03T06:42:50;20.80;99.90
64987;DHT22;51532;52.108;9.360;2022-08-03T06:45:36;20.90;99.90
64987;DHT22;51532;52.108;9.360;2022-08-03T06:48:21;21.00;99.90
64987;DHT22;51532;52.108;9.360;2022-08-03T06:51:07;21.10;99.90
64987;DHT22;51532;52.108;9.360;2022-08-03T06:53:52;21.20;99.90
64987;DHT22;51532;52.108;9.360;2022-08-03T06:56:38;21.30;99.90
64987;DHT22;51532;52.108;9.360;2022-08-03T06:59:23;21.50;99.90
64987;DHT22;51532;52.108;9.360;2022-08-03T07:02:29;21.60;99.90
64987;DHT22;51532;52.108;9.360;2022-08-03T07:05:14;21.70;99.90
64987;DHT22;51532;52.108;9.360;2022-08-03T07:08:00;21.90;99.90
64987;DHT22;51532;52.108;9.360;2022-08-03T07:10:47;21.90;99.90
64987;DHT22;51532;52.108;9.360;2022-08-03T07:13:32;22.00;99.90
64987;DHT22;51532;52.108;9.360;2022-08-03T07:16:18;22.30;99.90
64987;DHT22;51532;52.108;9.360;2022-08-03T07:19:03;22.40;99.90
64987;DHT22;51532;52.108;9.360;2022-08-03T07:21:49;22.60;99.90
64987;DHT22;51532;52.108;9.360;2022-08-03T07:24:37;22.70;99.90
64987;DHT22;51532;52.108;9.360;2022-08-03T07:27:24;22.90;99.90
64987;DHT22;51532;52.108;9.360;2022-08-03T07:30:11;23.10;99.90
64987;DHT22;51532;52.108;9.360;2022-08-03T07:32:57;23.10;99.90
64987;DHT22;51532;52.108;9.360;2022-08-03T07:35:43;23.30;99.90
64987;DHT22;51532;52.108;9.360;2022-08-03T07:38:28;23.40;99.90
64987;DHT22;51532;52.108;9.360;2022-08-03T07:41:14;23.50;99.90
64987;DHT22;51532;52.108;9.360;2022-08-03T07:43:59;23.70;99.90
64987;DHT22;51532;52.108;9.360;2022-08-03T07:46:45;23.70;99.90
64987;DHT22;51532;52.108;9.360;2022-08-03T07:49:31;23.80;99.90
64987;DHT22;51532;52.108;9.360;2022-08-03T07:52:16;24.10;99.90
64987;DHT22;51532;52.108;9.360;2022-08-03T07:55:22;24.30;99.90
64987;DHT22;51532;52.108;9.360;2022-08-03T07:58:10;24.40;99.90
64987;DHT22;51532;52.108;9.360;2022-08-03T08:01:03;24.60;99.90
64987;DHT22;51532;52.108;9.360;2022-08-03T08:03:49;24.70;99.90
64987;DHT22;51532;52.108;9.360;2022-08-03T08:06:37;24.90;99.90
64987;DHT22;51532;52.108;9.360;2022-08-03T08:09:23;25.00;99.90
64987;DHT22;51532;52.108;9.360;2022-08-03T08:12:13;25.20;99.90
64987;DHT22;51532;52.108;9.360;2022-08-03T08:15:00;25.10;99.90
64987;DHT22;51532;52.108;9.360;2022-08-03T08:17:46;25.30;99.90
64987;DHT22;51532;52.108;9.360;2022-08-03T08:20:33;25.40;99.90
64987;DHT22;51532;52.108;9.360;2022-08-03T08:23:22;25.40;99.90
64987;DHT22;51532;52.108;9.360;2022-08-03T08:26:27;25.50;99.90
64987;DHT22;51532;52.108;9.360;2022-08-03T08:29:13;25.60;99.90
64987;DHT22;51532;52.108;9.360;2022-08-03T08:31:58;25.70;99.90
64987;DHT22;51532;52.108;9.360;2022-08-03T08:34:43;25.80;99.90
64987;DHT22;51532;52.108;9.360;2022-08-03T08:37:29;25.90;99.90
64987;DHT22;51532;52.108;9.360;2022-08-03T08:40:15;26.00;99.90
64987;DHT22;51532;52.108;9.360;2022-08-03T08:43:01;26.20;99.90
64987;DHT22;51532;52.108;9.360;2022-08-03T08:45:48;26.20;99.90
64987;DHT22;51532;52.108;9.360;2022-08-03T08:48:36;26.20;99.90
64987;DHT22;51532;52.108;9.360;2022-08-03T08:51:27;26.30;99.90
64987;DHT22;51532;52.108;9.360;2022-08-03T08:54:35;26.30;99.90
64987;DHT22;51532;52.108;9.360;2022-08-03T08:57:25;26.30;99.90
64987;DHT22;51532;52.108;9.360;2022-08-03T09:00:27;26.30;99.90
64987;DHT22;51532;52.108;9.360;2022-08-03T09:03:14;26.50;99.90
64987;DHT22;51532;52.108;9.360;2022-08-03T09:06:14;26.70;99.90
64987;DHT22;51532;52.108;9.360;2022-08-03T09:09:00;26.80;99.90
64987;DHT22;51532;52.108;9.360;2022-08-03T09:11:47;26.80;99.90
64987;DHT22;51532;52.108;9.360;2022-08-03T09:14:45;26.90;99.90
64987;DHT22;51532;52.108;9.360;2022-08-03T09:17:53;26.90;99.90
64987;DHT22;51532;52.108;9.360;2022-08-03T09:20:39;27.00;99.90
64987;DHT22;51532;52.108;9.360;2022-08-03T09:23:24;27.20;99.90
64987;DHT22;51532;52.108;9.360;2022-08-03T09:26:49;27.30;99.90
64987;DHT22;51532;52.108;9.360;2022-08-03T09:29:38;27.40;99.90
64987;DHT22;51532;52.108;9.360;2022-08-03T09:32:23;27.50;99.90
64987;DHT22;51532;52.108;9.360;2022-08-03T09:35:09;27.60;99.90
64987;DHT22;51532;52.108;9.360;2022-08-03T09:38:08;27.60;99.90
64987;DHT22;51532;52.108;9.360;2022-08-03T09:40:58;27.70;99.90
64987;DHT22;51532;52.108;9.360;2022-08-03T09:43:45;27.80;99.90
64987;DHT22;51532;52.108;9.360;2022-08-03T09:46:44;28.00;99.90
64987;DHT22;51532;52.108;9.360;2022-08-03T09:49:35;28.00;99.90
64987;DHT22;51532;52.108;9.360;2022-08-03T09:52:29;28.00;99.90
64987;DHT22;51532;52.108;9.360;2022-08-03T09:55:32;27.90;99.90
64987;DHT22;51532;52.108;9.360;2022-08-03T09:58:45;27.90;99.90
64987;DHT22;51532;52.108;9.360;2022-08-03T10:01:32;28.20;99.90
64987;DHT22;51532;52.108;9.360;2022-08-03T10:04:22;28.20;99.90
64987;DHT22;51532;52.108;9.360;2022-08-03T10:07:09;28.30;99.90
64987;DHT22;51532;52.108;9.360;2022-08-03T10:10:00;28.30;99.90
64987;DHT22;51532;52.108;9.360;2022-08-03T10:13:06;28.30;99.90
64987;DHT22;51532;52.108;9.360;2022-08-03T10:15:51;28.50;99.90
64987;DHT22;51532;52.108;9.360;2022-08-03T10:18:56;28.60;99.90
64987;DHT22;51532;52.108;9.360;2022-08-03T10:22:03;28.80;99.90
64987;DHT22;51532;52.108;9.360;2022-08-03T10:25:08;28.50;99.90
64987;DHT22;51532;52.108;9.360;2022-08-03T10:28:01;28.60;99.90
64987;DHT22;51532;52.108;9.360;2022-08-03T10:30:50;28.80;99.90
64987;DHT22;51532;52.108;9.360;2022-08-03T10:33:41;28.90;99.90
64987;DHT22;51532;52.108;9.360;2022-08-03T10:36:37;29.00;99.90
64987;DHT22;51532;52.108;9.360;2022-08-03T10:39:27;29.10;99.90
64987;DHT22;51532;52.108;9.360;2022-08-03T10:42:13;29.20;99.90
64987;DHT22;51532;52.108;9.360;2022-08-03T10:45:05;29.20;99.90
64987;DHT22;51532;52.108;9.360;2022-08-03T10:47:52;29.00;99.90
64987;DHT22;51532;52.108;9.360;2022-08-03T10:50:39;29.10;99.90
64987;DHT22;51532;52.108;9.360;2022-08-03T10:53:39;29.10;99.90
64987;DHT22;51532;52.108;9.360;2022-08-03T10:56:39;29.30;99.90
64987;DHT22;51532;52.108;9.360;2022-08-03T10:59:59;29.20;99.90
64987;DHT22;51532;52.108;9.360;2022-08-03T11:03:03;29.40;99.90
64987;DHT22;51532;52.108;9.360;2022-08-03T11:05:50;29.80;99.90
64987;DHT22;51532;52.108;9.360;2022-08-03T11:08:38;30.10;99.90
64987;DHT22;51532;52.108;9.360;2022-08-03T11:11:24;30.40;99.90
64987;DHT22;51532;52.108;9.360;2022-08-03T11:14:16;30.10;99.90
64987;DHT22;51532;52.108;9.360;2022-08-03T11:17:07;30.50;99.90
64987;DHT22;51532;52.108;9.360;2022-08-03T11:19:59;30.20;99.90
64987;DHT22;51532;52.108;9.360;2022-08-03T11:22:48;30.40;99.90
64987;DHT22;51532;52.108;9.360;2022-08-03T11:28:52;30.80;99.90
64987;DHT22;51532;52.108;9.360;2022-08-03T11:40:51;30.80;99.90
64987;DHT22;51532;52.108;9.360;2022-08-03T11:43:45;30.90;99.90
64987;DHT22;51532;52.108;9.360;2022-08-03T11:46:36;30.70;99.90
64987;DHT22;51532;52.108;9.360;2022-08-03T11:49:22;30.60;99.90
64987;DHT22;51532;52.108;9.360;2022-08-03T11:52:08;30.60;99.90
64987;DHT22;51532;52.108;9.360;2022-08-03T11:54:54;30.50;99.90
64987;DHT22;51532;52.108;9.360;2022-08-03T11:57:42;30.30;99.90
64987;DHT22;51532;52.108;9.360;2022-08-03T12:00:49;30.40;99.90
64987;DHT22;51532;52.108;9.360;2022-08-03T12:03:34;30.70;99.90
64987;DHT22;51532;52.108;9.360;2022-08-03T12:06:20;30.80;99.90
64987;DHT22;51532;52.108;9.360;2022-08-03T12:09:14;30.70;99.90
64987;DHT22;51532;52.108;9.360;2022-08-03T12:12:00;30.90;99.90
64987;DHT22;51532;52.108;9.360;2022-08-03T12:14:45;31.00;99.90
64987;DHT22;51532;52.108;9.360;2022-08-03T12:17:38;31.20;99.90
64987;DHT22;51532;52.108;9.360;2022-08-03T12:20:26;31.20;99.90
64987;DHT22;51532;52.108;9.360;2022-08-03T12:23:19;31.20;99.90
64987;DHT22;51532;52.108;9.360;2022-08-03T12:26:07;31.20;99.90
64987;DHT22;51532;52.108;9.360;2022-08-03T12:28:53;30.90;99.90
64987;DHT22;51532;52.108;9.360;2022-08-03T12:31:39;31.10;99.90
64987;DHT22;51532;52.108;9.360;2022-08-03T12:34:44;31.40;99.90
64987;DHT22;51532;52.108;9.360;2022-08-03T12:37:31;31.60;99.90
64987;DHT22;51532;52.108;9.360;2022-08-03T12:40:24;31.80;99.90
64987;DHT22;51532;52.108;9.360;2022-08-03T12:43:13;31.90;99.90
64987;DHT22;51532;52.108;9.360;2022-08-03T12:46:13;31.80;99.90
64987;DHT22;51532;52.108;9.360;2022-08-03T12:49:09;31.60;99.90
64987;DHT22;51532;52.108;9.360;2022-08-03T12:51:59;31.10;99.90
64987;DHT22;51532;52.108;9.360;2022-08-03T12:54:58;31.50;99.90
64987;DHT22;51532;52.108;9.360;2022-08-03T12:57:44;31.50;99.90
64987;DHT22;51532;52.108;9.360;2022-08-03T13:00:30;31.50;99.90
64987;DHT22;51532;52.108;9.360;2022-08-03T13:03:16;31.70;99.90
64987;DHT22;51532;52.108;9.360;2022-08-03T13:06:25;31.70;99.90
64987;DHT22;51532;52.108;9.360;2022-08-03T13:09:10;31.70;99.90
64987;DHT22;51532;52.108;9.360;2022-08-03T13:12:06;31.60;99.90
64987;DHT22;51532;52.108;9.360;2022-08-03T13:14:55;31.50;99.90
64987;DHT22;51532;52.108;9.360;2022-08-03T13:17:41;31.80;99.90
64987;DHT22;51532;52.108;9.360;2022-08-03T13:20:27;31.90;99.90
64987;DHT22;51532;52.108;9.360;2022-08-03T13:23:12;31.50;99.90
64987;DHT22;51532;52.108;9.360;2022-08-03T13:26:06;31.60;99.90
64987;DHT22;51532;52.108;9.360;2022-08-03T13:28:52;31.90;99.90
64987;DHT22;51532;52.108;9.360;2022-08-03T13:31:37;31.90;99.90
64987;DHT22;51532;52.108;9.360;2022-08-03T13:34:35;31.70;99.60
64987;DHT22;51532;52.108;9.360;2022-08-03T13:37:20;31.60;99.90
64987;DHT22;51532;52.108;9.360;2022-08-03T13:40:07;31.80;99.70
64987;DHT22;51532;52.108;9.360;2022-08-03T13:42:55;33.20;99.70
64987;DHT22;51532;52.108;9.360;2022-08-03T13:45:41;32.10;99.00
64987;DHT22;51532;52.108;9.360;2022-08-03T13:48:34;32.40;98.60
64987;DHT22;51532;52.108;9.360;2022-08-03T13:51:21;32.50;98.90
64987;DHT22;51532;52.108;9.360;2022-08-03T13:54:07;32.70;97.90
64987;DHT22;51532;52.108;9.360;2022-08-03T13:56:53;32.70;98.10
64987;DHT22;51532;52.108;9.360;2022-08-03T13:59:46;32.70;97.50
64987;DHT22;51532;52.108;9.360;2022-08-03T14:02:33;32.30;97.20
64987;DHT22;51532;52.108;9.360;2022-08-03T14:05:19;32.20;97.00
64987;DHT22;51532;52.108;9.360;2022-08-03T14:08:05;32.10;97.20
64987;DHT22;51532;52.108;9.360;2022-08-03T14:10:51;32.20;97.40
64987;DHT22;51532;52.108;9.360;2022-08-03T14:13:37;32.20;97.50
64987;DHT22;51532;52.108;9.360;2022-08-03T14:16:22;32.80;97.30
64987;DHT22;51532;52.108;9.360;2022-08-03T14:19:07;34.30;95.90
64987;DHT22;51532;52.108;9.360;2022-08-03T14:21:53;35.80;94.50
64987;DHT22;51532;52.108;9.360;2022-08-03T14:24:50;37.10;92.90
64987;DHT22;51532;52.108;9.360;2022-08-03T14:27:37;39.20;90.50
64987;DHT22;51532;52.108;9.360;2022-08-03T14:30:22;39.70;84.70
64987;DHT22;51532;52.108;9.360;2022-08-03T14:33:08;40.40;81.90
64987;DHT22;51532;52.108;9.360;2022-08-03T14:35:54;41.40;77.20
64987;DHT22;51532;52.108;9.360;2022-08-03T14:38:39;41.90;73.30
64987;DHT22;51532;52.108;9.360;2022-08-03T14:41:25;41.80;71.90
64987;DHT22;51532;52.108;9.360;2022-08-03T14:44:10;42.30;70.80
64987;DHT22;51532;52.108;9.360;2022-08-03T14:46:55;41.50;71.70
64987;DHT22;51532;52.108;9.360;2022-08-03T14:49:42;41.80;70.70
64987;DHT22;51532;52.108;9.360;2022-08-03T14:52:47;43.30;66.00
64987;DHT22;51532;52.108;9.360;2022-08-03T14:55:32;44.30;62.90
64987;DHT22;51532;52.108;9.360;2022-08-03T14:58:33;44.20;61.10
64987;DHT22;51532;52.108;9.360;2022-08-03T15:01:19;44.00;58.50
64987;DHT22;51532;52.108;9.360;2022-08-03T15:04:24;44.20;58.10
64987;DHT22;51532;52.108;9.360;2022-08-03T15:07:09;45.00;57.30
64987;DHT22;51532;52.108;9.360;2022-08-03T15:09:55;43.60;57.90
64987;DHT22;51532;52.108;9.360;2022-08-03T15:12:40;44.20;56.10
64987;DHT22;51532;52.108;9.360;2022-08-03T15:15:25;43.70;55.60
64987;DHT22;51532;52.108;9.360;2022-08-03T15:18:11;43.60;55.50
64987;DHT22;51532;52.108;9.360;2022-08-03T15:20:56;43.50;55.50
64987;DHT22;51532;52.108;9.360;2022-08-03T15:23:42;42.30;57.10
64987;DHT22;51532;52.108;9.360;2022-08-03T15:26:27;44.40;55.00
64987;DHT22;51532;52.108;9.360;2022-08-03T15:29:23;43.90;53.50
64987;DHT22;51532;52.108;9.360;2022-08-03T15:32:28;43.40;53.90
64987;DHT22;51532;52.108;9.360;2022-08-03T15:35:14;41.90;55.30
64987;DHT22;51532;52.108;9.360;2022-08-03T15:37:59;43.00;54.80
64987;DHT22;51532;52.108;9.360;2022-08-03T15:40:44;44.00;53.20
64987;DHT22;51532;52.108;9.360;2022-08-03T15:43:30;44.30;53.10
64987;DHT22;51532;52.108;9.360;2022-08-03T15:46:15;43.90;53.70
64987;DHT22;51532;52.108;9.360;2022-08-03T15:49:14;44.00;53.40
64987;DHT22;51532;52.108;9.360;2022-08-03T15:51:59;45.40;52.70
64987;DHT22;51532;52.108;9.360;2022-08-03T15:54:45;45.40;49.90
64987;DHT22;51532;52.108;9.360;2022-08-03T15:57:30;43.50;51.40
64987;DHT22;51532;52.108;9.360;2022-08-03T16:00:16;44.90;51.10
64987;DHT22;51532;52.108;9.360;2022-08-03T16:03:02;44.90;51.10
64987;DHT22;51532;52.108;9.360;2022-08-03T16:05:48;44.20;51.20
64987;DHT22;51532;52.108;9.360;2022-08-03T16:08:33;45.10;50.60
64987;DHT22;51532;52.108;9.360;2022-08-03T16:11:19;44.60;51.10
64987;DHT22;51532;52.108;9.360;2022-08-03T16:14:04;43.20;51.90
64987;DHT22;51532;52.108;9.360;2022-08-03T16:17:10;44.00;51.50
64987;DHT22;51532;52.108;9.360;2022-08-03T16:19:55;44.00;51.40
64987;DHT22;51532;52.108;9.360;2022-08-03T16:22:46;42.70;52.40
64987;DHT22;51532;52.108;9.360;2022-08-03T16:25:32;42.60;52.30
64987;DHT22;51532;52.108;9.360;2022-08-03T16:28:18;42.10;53.60
64987;DHT22;51532;52.108;9.360;2022-08-03T16:31:04;42.90;52.90
64987;DHT22;51532;52.108;9.360;2022-08-03T16:33:50;43.00;52.60
64987;DHT22;51532;52.108;9.360;2022-08-03T16:36:36;43.40;52.30
64987;DHT22;51532;52.108;9.360;2022-08-03T16:39:22;42.10;53.20
64987;DHT22;51532;52.108;9.360;2022-08-03T16:42:08;42.20;52.80
64987;DHT22;51532;52.108;9.360;2022-08-03T16:44:53;40.90;53.80
64987;DHT22;51532;52.108;9.360;2022-08-03T16:47:39;41.20;54.30
64987;DHT22;51532;52.108;9.360;2022-08-03T16:50:24;40.10;55.20
64987;DHT22;51532;52.108;9.360;2022-08-03T16:53:11;38.90;57.00
64987;DHT22;51532;52.108;9.360;2022-08-03T16:56:01;37.70;56.80
64987;DHT22;51532;52.108;9.360;2022-08-03T16:58:53;36.90;58.10
64987;DHT22;51532;52.108;9.360;2022-08-03T17:01:39;36.90;58.90
64987;DHT22;51532;52.108;9.360;2022-08-03T17:04:25;36.90;58.80
64987;DHT22;51532;52.108;9.360;2022-08-03T17:07:13;36.30;59.20
64987;DHT22;51532;52.108;9.360;2022-08-03T17:09:59;35.90;60.40
64987;DHT22;51532;52.108;9.360;2022-08-03T17:12:45;35.50;61.60
64987;DHT22;51532;52.108;9.360;2022-08-03T17:15:31;35.10;62.10
64987;DHT22;51532;52.108;9.360;2022-08-03T17:18:38;34.90;63.10
64987;DHT22;51532;52.108;9.360;2022-08-03T17:21:36;34.70;63.20
64987;DHT22;51532;52.108;9.360;2022-08-03T17:24:31;34.60;63.70
64987;DHT22;51532;52.108;9.360;2022-08-03T17:27:27;34.40;64.00
64987;DHT22;51532;52.108;9.360;2022-08-03T17:30:34;34.20;64.70
64987;DHT22;51532;52.108;9.360;2022-08-03T17:33:39;34.00;65.50
64987;DHT22;51532;52.108;9.360;2022-08-03T17:36:38;34.00;65.90
64987;DHT22;51532;52.108;9.360;2022-08-03T17:39:44;32.30;64.90
64987;DHT22;51532;52.108;9.360;2022-08-03T17:42:44;33.80;66.40
64987;DHT22;51532;52.108;9.360;2022-08-03T17:45:35;33.60;66.80
64987;DHT22;51532;52.108;9.360;2022-08-03T17:48:37;33.40;67.20
64987;DHT22;51532;52.108;9.360;2022-08-03T17:51:39;33.40;67.40
64987;DHT22;51532;52.108;9.360;2022-08-03T17:54:44;33.40;67.60
64987;DHT22;51532;52.108;9.360;2022-08-03T17:57:59;33.30;67.80
64987;DHT22;51532;52.108;9.360;2022-08-03T18:00:48;33.20;68.20
64987;DHT22;51532;52.108;9.360;2022-08-03T18:04:16;33.00;69.00
64987;DHT22;51532;52.108;9.360;2022-08-03T18:07:15;32.80;69.70
64987;DHT22;51532;52.108;9.360;2022-08-03T18:10:02;32.70;69.70
64987;DHT22;51532;52.108;9.360;2022-08-03T18:13:10;32.60;69.70
64987;DHT22;51532;52.108;9.360;2022-08-03T18:16:00;32.50;70.60